Time;durP1;ratioP1;P1;durP2;ratioP2;P2;SDS_P1;SDS_P2;PMS_P1;PMS_P2;Temp;Humidity;BMP_temperature;BMP_pressure;BME280_temperature;BME280_humidity;BME280_pressure;Samples;Min_cycle;Max_cycle;Signal;HPM_P1;HPM_P2
2022/05/21 00:00:14;;;;;;;1999.90;999.90;;;;;;;-145.26;100.00;63821.50;5008861;28;20029;-65
2022/05/21 00:02:39;;;;;;;1999.90;999.90;;;;;;;-145.26;100.00;63821.50;5010094;28;20032;-65
2022/05/21 00:05:05;;;;;;;1999.90;999.90;;;;;;;-145.26;100.00;63821.50;5010391;28;20026;-65
2022/05/21 00:07:31;;;;;;;1999.90;999.90;;;;;;;-145.26;100.00;63821.50;5010084;28;20032;-65
2022/05/21 00:09:57;;;;;;;1999.90;999.90;;;;;;;-145.26;100.00;63821.50;5009833;28;20104;-65
2022/05/21 00:12:22;;;;;;;1999.90;999.90;;;;;;;-145.26;100.00;63821.50;5009942;28;20461;-65
2022/05/21 00:14:48;;;;;;;1999.90;999.90;;;;;;;-145.26;100.00;63821.50;5008378;28;20037;-65
2022/05/21 00:17:13;;;;;;;1999.90;999.90;;;;;;;-145.26;100.00;63821.50;5009515;28;20101;-65
2022/05/21 00:19:38;;;;;;;1999.90;999.90;;;;;;;-145.26;100.00;63821.50;5009411;28;20378;-65
2022/05/21 00:22:04;;;;;;;1999.90;999.90;;;;;;;-145.26;100.00;63821.50;5009873;28;20033;-65
2022/05/21 00:24:29;;;;;;;1999.90;999.90;;;;;;;-145.26;100.00;63821.50;5009802;28;20482;-65
2022/05/21 00:26:55;;;;;;;1999.90;999.90;;;;;;;-145.26;100.00;63821.50;5008770;28;20022;-65
2022/05/21 00:29:20;;;;;;;1999.90;999.90;;;;;;;-145.26;100.00;63821.50;5009300;28;20393;-66
2022/05/21 00:31:47;;;;;;;1999.90;999.90;;;;;;;-145.26;100.00;63821.50;5008948;28;20088;-65
2022/05/21 00:34:12;;;;;;;1999.90;999.90;;;;;;;-145.26;100.00;63821.50;5010016;28;20033;-65
2022/05/21 00:36:38;;;;;;;1999.90;999.90;;;;;;;-145.26;100.00;63821.50;4991603;28;20022;-65
2022/05/21 00:39:03;;;;;;;1999.90;999.90;;;;;;;-145.26;100.00;63821.50;5009617;28;20075;-64
2022/05/21 00:41:31;;;;;;;1999.90;999.90;;;;;;;-145.26;100.00;63821.50;4992226;28;20487;-65
2022/05/21 00:43:58;;;;;;;1999.90;999.90;;;;;;;-145.26;100.00;63821.50;5009086;28;20026;-64
2022/05/21 00:46:26;;;;;;;1999.90;999.90;;;;;;;-145.26;100.00;63821.50;5009025;28;20022;-64
2022/05/21 00:48:55;;;;;;;1999.90;999.90;;;;;;;-145.26;100.00;63821.50;5009532;28;20061;-65
2022/05/21 00:51:25;;;;;;;1999.90;999.90;;;;;;;-145.26;100.00;63821.50;5019461;28;20036;-64
2022/05/21 00:53:54;;;;;;;1999.90;999.90;;;;;;;-145.26;100.00;63821.50;5011870;28;20025;-63
2022/05/21 00:56:21;;;;;;;1999.90;999.90;;;;;;;-145.26;100.00;63821.50;5024493;28;20060;-64
2022/05/21 01:01:39;;;;;;;1999.90;999.90;;;;;;;-145.26;100.00;63821.50;5009338;28;20096;-65
2022/05/21 01:04:04;;;;;;;1999.90;999.90;;;;;;;-145.26;100.00;63821.50;5009695;28;20471;-65
2022/05/21 01:06:30;;;;;;;1999.90;999.90;;;;;;;-145.26;100.00;63821.50;5009669;28;20032;-65
2022/05/21 01:08:59;;;;;;;1999.90;999.90;;;;;;;-145.26;100.00;63821.50;5009632;28;20034;-65
2022/05/21 01:11:24;;;;;;;1999.90;999.90;;;;;;;-145.26;100.00;63821.50;5008776;28;20499;-66
2022/05/21 01:13:51;;;;;;;1999.90;999.90;;;;;;;-145.26;100.00;63821.50;5008473;28;20032;-66
2022/05/21 01:16:17;;;;;;;1999.90;999.90;;;;;;;-145.26;100.00;63821.50;5012653;28;20030;-66
2022/05/21 01:18:43;;;;;;;1999.90;999.90;;;;;;;-145.26;100.00;63821.50;5028982;28;20018;-65
2022/05/21 01:21:09;;;;;;;1999.90;999.90;;;;;;;-145.26;100.00;63821.50;5029362;28;20032;-66
2022/05/21 01:23:35;;;;;;;1999.90;999.90;;;;;;;-145.26;100.00;63821.50;5029280;28;20017;-66
2022/05/21 01:26:09;;;;;;;1999.90;999.90;;;;;;;-145.26;100.00;63821.50;5021447;28;20029;-66
2022/05/21 01:28:37;;;;;;;1999.90;999.90;;;;;;;-145.26;100.00;63821.50;5012920;28;20109;-66
2022/05/21 01:31:03;;;;;;;1999.90;999.90;;;;;;;-145.26;100.00;63821.50;5012577;28;20032;-65
2022/05/21 01:33:31;;;;;;;1999.90;999.90;;;;;;;-145.26;100.00;63821.50;5012955;28;20112;-65
2022/05/21 01:35:58;;;;;;;1999.90;999.90;;;;;;;-145.26;100.00;63821.50;5013066;28;20030;-65
2022/05/21 01:38:27;;;;;;;1999.90;999.90;;;;;;;-145.26;100.00;63821.50;5012383;28;20387;-66
2022/05/21 01:40:52;;;;;;;1999.90;999.90;;;;;;;-145.26;100.00;63821.50;5011866;28;20021;-65
2022/05/21 01:46:03;;;;;;;1999.90;999.90;;;;;;;-145.26;100.00;63821.50;5012706;28;20037;-65
2022/05/21 01:48:31;;;;;;;1999.90;999.90;;;;;;;-145.26;100.00;63821.50;5011524;28;20036;-65
2022/05/21 01:50:57;;;;;;;1999.90;999.90;;;;;;;-145.26;100.00;63821.50;4992931;28;20031;-65
2022/05/21 01:53:24;;;;;;;1999.90;999.90;;;;;;;-145.26;100.00;63821.50;4975487;28;20034;-65
2022/05/21 01:55:50;;;;;;;1999.90;999.90;;;;;;;-145.26;100.00;63821.50;4988950;28;20398;-65
2022/05/21 01:58:16;;;;;;;1999.90;999.90;;;;;;;-145.26;100.00;63821.50;5012041;28;20030;-65
2022/05/21 02:00:42;;;;;;;1999.90;999.90;;;;;;;-145.26;100.00;63821.50;5012568;28;20066;-65
2022/05/21 02:03:09;;;;;;;1999.90;999.90;;;;;;;-145.26;100.00;63821.50;5012418;28;20030;-65
2022/05/21 02:05:35;;;;;;;1999.90;999.90;;;;;;;-145.26;100.00;63821.50;5012543;28;20026;-65
2022/05/21 02:08:00;;;;;;;1999.90;999.90;;;;;;;-145.26;100.00;63821.50;5011859;28;20040;-65
2022/05/21 02:10:26;;;;;;;1999.90;999.90;;;;;;;-145.26;100.00;63821.50;5011369;28;20487;-65
2022/05/21 02:12:52;;;;;;;1999.90;999.90;;;;;;;-145.26;100.00;63821.50;5012081;28;20029;-65
2022/05/21 02:15:17;;;;;;;1999.90;999.90;;;;;;;-145.26;100.00;63821.50;5012113;28;20029;-65
2022/05/21 02:17:42;;;;;;;1999.90;999.90;;;;;;;-145.26;100.00;63821.50;5012176;28;20412;-65
2022/05/21 02:20:08;;;;;;;1999.90;999.90;;;;;;;-145.26;100.00;63821.50;5011293;28;20149;-65
2022/05/21 02:22:36;;;;;;;1999.90;999.90;;;;;;;-145.26;100.00;63821.50;5012338;28;20022;-66
2022/05/21 02:25:06;;;;;;;1999.90;999.90;;;;;;;-145.26;100.00;63821.50;5011054;28;20025;-65
2022/05/21 02:27:31;;;;;;;1999.90;999.90;;;;;;;-145.26;100.00;63821.50;5011894;28;20393;-66
2022/05/21 02:29:56;;;;;;;1999.90;999.90;;;;;;;-145.26;100.00;63821.50;5011354;28;20101;-65
2022/05/21 02:32:22;;;;;;;1999.90;999.90;;;;;;;-145.26;100.00;63821.50;5011779;28;20030;-65
2022/05/21 02:34:47;;;;;;;1999.90;999.90;;;;;;;-145.26;100.00;63821.50;5011747;28;20030;-65
2022/05/21 02:39:57;;;;;;;1999.90;999.90;;;;;;;-145.26;100.00;63821.50;5010432;28;20125;-66
2022/05/21 02:45:07;;;;;;;1999.90;999.90;;;;;;;-145.26;100.00;63821.50;5011056;28;20045;-65
2022/05/21 02:47:33;;;;;;;1999.90;999.90;;;;;;;-145.26;100.00;63821.50;5010555;28;20060;-65
2022/05/21 02:49:59;;;;;;;1999.90;999.90;;;;;;;-145.26;100.00;63821.50;5010256;28;20029;-66
2022/05/21 02:52:24;;;;;;;1999.90;999.90;;;;;;;-145.26;100.00;63821.50;5011226;28;20108;-65
2022/05/21 02:54:50;;;;;;;1999.90;999.90;;;;;;;-145.26;100.00;63821.50;5010551;28;20064;-66
2022/05/21 02:57:16;;;;;;;1999.90;999.90;;;;;;;-145.26;100.00;63821.50;5011487;28;20105;-65
2022/05/21 02:59:41;;;;;;;1999.90;999.90;;;;;;;-145.26;100.00;63821.50;5011142;28;20083;-66
2022/05/21 03:02:07;;;;;;;1999.90;999.90;;;;;;;-145.26;100.00;63821.50;5011162;28;20029;-66
2022/05/21 03:04:33;;;;;;;1999.90;999.90;;;;;;;-145.26;100.00;63821.50;5010450;28;20430;-66
2022/05/21 03:06:58;;;;;;;1999.90;999.90;;;;;;;-145.26;100.00;63821.50;4993529;28;20065;-65
2022/05/21 03:12:09;;;;;;;1999.90;999.90;;;;;;;-145.26;100.00;63821.50;5010903;28;20573;-66
2022/05/21 03:14:34;;;;;;;1999.90;999.90;;;;;;;-145.26;100.00;63821.50;5010172;28;20101;-65
2022/05/21 03:17:00;;;;;;;1999.90;999.90;;;;;;;-145.26;100.00;63821.50;5011009;28;20467;-66
2022/05/21 03:19:27;;;;;;;1999.90;999.90;;;;;;;-145.26;100.00;63821.50;5010757;28;20053;-65
2022/05/21 03:21:52;;;;;;;1999.90;999.90;;;;;;;-145.26;100.00;63821.50;5010730;28;20033;-66
2022/05/21 03:24:18;;;;;;;1999.90;999.90;;;;;;;-145.26;100.00;63821.50;5009874;28;20022;-65
2022/05/21 03:26:43;;;;;;;1999.90;999.90;;;;;;;-145.26;100.00;63821.50;5010773;28;20084;-65
2022/05/21 03:29:09;;;;;;;1999.90;999.90;;;;;;;-145.26;100.00;63821.50;5008773;28;20087;-66
2022/05/21 03:31:34;;;;;;;1999.90;999.90;;;;;;;-145.26;100.00;63821.50;5010843;28;20049;-65
2022/05/21 03:34:00;;;;;;;1999.90;999.90;;;;;;;-145.26;100.00;63821.50;5010640;28;20048;-66
2022/05/21 03:36:25;;;;;;;1999.90;999.90;;;;;;;-145.26;100.00;63821.50;5010437;28;20030;-65
2022/05/21 03:38:51;;;;;;;1999.90;999.90;;;;;;;-145.26;100.00;63821.50;5009098;28;20057;-65
2022/05/21 03:41:16;;;;;;;1999.90;999.90;;;;;;;-145.26;100.00;63821.50;5010678;28;20029;-66
2022/05/21 03:43:43;;;;;;;1999.90;999.90;;;;;;;-145.26;100.00;63821.50;5010603;28;20045;-66
2022/05/21 03:46:08;;;;;;;1999.90;999.90;;;;;;;-145.26;100.00;63821.50;5010089;28;20022;-66
2022/05/21 03:48:34;;;;;;;1999.90;999.90;;;;;;;-145.26;100.00;63821.50;5009891;28;20459;-65
2022/05/21 03:50:59;;;;;;;1999.90;999.90;;;;;;;-145.26;100.00;63821.50;4992616;28;20041;-65
2022/05/21 03:53:26;;;;;;;1999.90;999.90;;;;;;;-145.26;100.00;63821.50;5009646;28;20483;-65
2022/05/21 03:55:53;;;;;;;1999.90;999.90;;;;;;;-145.26;100.00;63821.50;5010189;28;20123;-65
2022/05/21 03:58:19;;;;;;;1999.90;999.90;;;;;;;-145.26;100.00;63821.50;5009782;28;20030;-65
2022/05/21 04:00:44;;;;;;;1999.90;999.90;;;;;;;-145.26;100.00;63821.50;5024103;23;20052;-66
2022/05/21 04:03:10;;;;;;;1999.90;999.90;;;;;;;-145.26;100.00;63821.50;5009744;28;20034;-65
2022/05/21 04:05:36;;;;;;;1999.90;999.90;;;;;;;-145.26;100.00;63821.50;4987690;28;20061;-65
2022/05/21 04:08:02;;;;;;;1999.90;999.90;;;;;;;-145.26;100.00;63821.50;4969023;28;20045;-66
2022/05/21 04:10:28;;;;;;;1999.90;999.90;;;;;;;-145.26;100.00;63821.50;4972558;28;20034;-67
2022/05/21 04:12:53;;;;;;;1999.90;999.90;;;;;;;-145.26;100.00;63821.50;4990521;28;20033;-67
2022/05/21 04:15:19;;;;;;;1999.90;999.90;;;;;;;-145.26;100.00;63821.50;4989965;28;20109;-67
2022/05/21 04:17:44;;;;;;;1999.90;999.90;;;;;;;-145.26;100.00;63821.50;4973032;28;20510;-67
2022/05/21 04:20:13;;;;;;;1999.90;999.90;;;;;;;-145.26;100.00;63821.50;4989852;28;20037;-67
2022/05/21 04:22:39;;;;;;;1999.90;999.90;;;;;;;-145.26;100.00;63821.50;4989521;28;20034;-67
2022/05/21 04:25:06;;;;;;;1999.90;999.90;;;;;;;-145.26;100.00;63821.50;4972911;28;20033;-67
2022/05/21 04:27:34;;;;;;;1999.90;999.90;;;;;;;-145.26;100.00;63821.50;4990453;28;20030;-68
2022/05/21 04:30:00;;;;;;;1999.90;999.90;;;;;;;-145.26;100.00;63821.50;4972392;28;20022;-67
2022/05/21 04:32:25;;;;;;;1999.90;999.90;;;;;;;-145.26;100.00;63821.50;4971974;28;20093;-67
2022/05/21 04:34:50;;;;;;;1999.90;999.90;;;;;;;-145.26;100.00;63821.50;4990205;28;20084;-67
2022/05/21 04:37:16;;;;;;;1999.90;999.90;;;;;;;-145.26;100.00;63821.50;4989317;28;20034;-67
2022/05/21 04:39:41;;;;;;;1999.90;999.90;;;;;;;-145.26;100.00;63821.50;4989818;28;20042;-66
2022/05/21 04:42:07;;;;;;;1999.90;999.90;;;;;;;-145.26;100.00;63821.50;4990316;28;20065;-68
2022/05/21 04:44:34;;;;;;;1999.90;999.90;;;;;;;-145.26;100.00;63821.50;4990301;28;20034;-67
2022/05/21 04:47:00;;;;;;;1999.90;999.90;;;;;;;-145.26;100.00;63821.50;4971880;28;20030;-67
2022/05/21 04:49:26;;;;;;;1999.90;999.90;;;;;;;-145.26;100.00;63821.50;4972438;28;20076;-67
2022/05/21 04:51:51;;;;;;;1999.90;999.90;;;;;;;-145.26;100.00;63821.50;4990214;28;20490;-67
2022/05/21 04:54:17;;;;;;;1999.90;999.90;;;;;;;-145.26;100.00;63821.50;4989389;28;20030;-69
2022/05/21 04:56:42;;;;;;;1999.90;999.90;;;;;;;-145.26;100.00;63821.50;4972515;28;20038;-68
2022/05/21 04:59:09;;;;;;;1999.90;999.90;;;;;;;-145.26;100.00;63821.50;4972126;28;20035;-67
2022/05/21 05:01:36;;;;;;;1999.90;999.90;;;;;;;-145.26;100.00;63821.50;4975209;28;20109;-67
2022/05/21 05:04:01;;;;;;;1999.90;999.90;;;;;;;-145.26;100.00;63821.50;4976421;28;20041;-68
2022/05/21 05:06:26;;;;;;;1999.90;999.90;;;;;;;-145.26;100.00;63821.50;4993762;28;20030;-67
2022/05/21 05:08:52;;;;;;;1999.90;999.90;;;;;;;-145.26;100.00;63821.50;4992970;28;20037;-67
2022/05/21 05:11:17;;;;;;;1999.90;999.90;;;;;;;-145.26;100.00;63821.50;4993491;28;20097;-67
2022/05/21 05:13:43;;;;;;;1999.90;999.90;;;;;;;-145.26;100.00;63821.50;4993742;28;20050;-67
2022/05/21 05:16:08;;;;;;;1999.90;999.90;;;;;;;-145.26;100.00;63821.50;4992762;28;20502;-67
2022/05/21 05:18:34;;;;;;;1999.90;999.90;;;;;;;-145.26;100.00;63821.50;4975986;28;20022;-67
2022/05/21 05:21:01;;;;;;;1999.90;999.90;;;;;;;-145.26;100.00;63821.50;4992963;28;20034;-67
2022/05/21 05:23:27;;;;;;;1999.90;999.90;;;;;;;-145.26;100.00;63821.50;4975388;28;20027;-67
2022/05/21 05:25:53;;;;;;;1999.90;999.90;;;;;;;-145.26;100.00;63821.50;4975955;28;20514;-68
2022/05/21 05:28:21;;;;;;;1999.90;999.90;;;;;;;-145.26;100.00;63821.50;4975588;28;20081;-67
2022/05/21 05:30:47;;;;;;;1999.90;999.90;;;;;;;-145.26;100.00;63821.50;4993628;28;20031;-67
2022/05/21 05:33:13;;;;;;;1999.90;999.90;;;;;;;-145.26;100.00;63821.50;4992890;28;20041;-67
2022/05/21 05:35:39;;;;;;;1999.90;999.90;;;;;;;-145.26;100.00;63821.50;4976005;28;20038;-67
2022/05/21 05:38:10;;;;;;;1999.90;999.90;;;;;;;-145.26;100.00;63821.50;4974701;28;20035;-68
2022/05/21 05:40:36;;;;;;;1999.90;999.90;;;;;;;-145.26;100.00;63821.50;4993462;28;20069;-67
2022/05/21 05:43:02;;;;;;;1999.90;999.90;;;;;;;-145.26;100.00;63821.50;4993361;28;20438;-68
2022/05/21 05:45:28;;;;;;;1999.90;999.90;;;;;;;-145.26;100.00;63821.50;4975742;28;20026;-67
2022/05/21 05:47:53;;;;;;;1999.90;999.90;;;;;;;-145.26;100.00;63821.50;4975673;28;20113;-67
2022/05/21 05:50:19;;;;;;;1999.90;999.90;;;;;;;-145.26;100.00;63821.50;4991713;28;20026;-66
2022/05/21 05:52:45;;;;;;;1999.90;999.90;;;;;;;-145.26;100.00;63821.50;4974635;28;20030;-67
2022/05/21 05:55:11;;;;;;;1999.90;999.90;;;;;;;-145.26;100.00;63821.50;4956131;28;20054;-67
2022/05/21 05:57:36;;;;;;;1999.90;999.90;;;;;;;-145.26;100.00;63821.50;4973638;28;20809;-67
2022/05/21 06:00:03;;;;;;;1999.90;999.90;;;;;;;-145.26;100.00;63821.50;4962555;28;20030;-67
2022/05/21 06:05:16;;;;;;;1999.90;999.90;;;;;;;-145.26;100.00;63821.50;4993006;28;20439;-67
2022/05/21 06:07:47;;;;;;;1999.90;999.90;;;;;;;-145.26;100.00;63821.50;4989275;28;20034;-68
2022/05/21 06:10:15;;;;;;;1999.90;999.90;;;;;;;-145.26;100.00;63821.50;4972808;28;20392;-67
2022/05/21 06:12:41;;;;;;;1999.90;999.90;;;;;;;-145.26;100.00;63821.50;4973026;28;20031;-67
2022/05/21 06:15:09;;;;;;;1999.90;999.90;;;;;;;-145.26;100.00;63821.50;4973490;28;20443;-67
2022/05/21 06:17:34;;;;;;;1999.90;999.90;;;;;;;-145.26;100.00;63821.50;4987837;28;20018;-67
2022/05/21 06:20:00;;;;;;;1999.90;999.90;;;;;;;-145.26;100.00;63821.50;4991167;28;20054;-68
2022/05/21 06:22:25;;;;;;;1999.90;999.90;;;;;;;-145.26;100.00;63821.50;4992904;28;20038;-67
2022/05/21 06:24:51;;;;;;;1999.90;999.90;;;;;;;-145.26;100.00;63821.50;4990818;28;20018;-67
2022/05/21 06:27:16;;;;;;;1999.90;999.90;;;;;;;-145.26;100.00;63821.50;4991588;28;20109;-67
2022/05/21 06:29:42;;;;;;;1999.90;999.90;;;;;;;-145.26;100.00;63821.50;4990707;28;20133;-67
2022/05/21 06:32:08;;;;;;;1999.90;999.90;;;;;;;-145.26;100.00;63821.50;4991501;28;20106;-68
2022/05/21 06:34:36;;;;;;;1999.90;999.90;;;;;;;-145.26;100.00;63821.50;4992480;28;20037;-67
2022/05/21 06:37:06;;;;;;;1999.90;999.90;;;;;;;-145.26;100.00;63821.50;4991003;28;20026;-67
2022/05/21 06:39:33;;;;;;;1999.90;999.90;;;;;;;-145.26;100.00;63821.50;4991012;28;20106;-67
2022/05/21 06:41:59;;;;;;;1999.90;999.90;;;;;;;-145.26;100.00;63821.50;4990953;28;20026;-67
2022/05/21 06:44:24;;;;;;;1999.90;999.90;;;;;;;-145.26;100.00;63821.50;4991433;28;20382;-67
2022/05/21 06:46:50;;;;;;;1999.90;999.90;;;;;;;-145.26;100.00;63821.50;4990660;28;20026;-67
2022/05/21 06:49:15;;;;;;;1999.90;999.90;;;;;;;-145.26;100.00;63821.50;4990315;28;20113;-67
2022/05/21 06:51:40;;;;;;;1999.90;999.90;;;;;;;-145.26;100.00;63821.50;4990780;28;20478;-67
2022/05/21 06:54:06;;;;;;;1999.90;999.90;;;;;;;-145.26;100.00;63821.50;4990920;28;20097;-67
2022/05/21 06:56:31;;;;;;;1999.90;999.90;;;;;;;-145.26;100.00;63821.50;4991895;28;20364;-67
2022/05/21 06:58:56;;;;;;;1999.90;999.90;;;;;;;-145.26;100.00;63821.50;4990273;28;20109;-68
2022/05/21 07:01:22;;;;;;;1999.90;999.90;;;;;;;-145.26;100.00;63821.50;4973002;28;20034;-68
2022/05/21 07:03:47;;;;;;;1999.90;999.90;;;;;;;-145.26;100.00;63821.50;4991663;28;20030;-67
2022/05/21 07:08:56;;;;;;;1999.90;999.90;;;;;;;-145.26;100.00;63821.50;4991220;28;20132;-68
2022/05/21 07:11:23;;;;;;;1999.90;999.90;;;;;;;-145.26;100.00;63821.50;4991723;28;20101;-67
2022/05/21 07:13:48;;;;;;;1999.90;999.90;;;;;;;-145.26;100.00;63821.50;4991831;28;20034;-68
2022/05/21 07:16:14;;;;;;;1999.90;999.90;;;;;;;-145.26;100.00;63821.50;4990723;28;20038;-70
2022/05/21 07:18:39;;;;;;;1999.90;999.90;;;;;;;-145.26;100.00;63821.50;4974136;28;20038;-68
2022/05/21 07:21:05;;;;;;;1999.90;999.90;;;;;;;-145.26;100.00;63821.50;4991689;28;20018;-67
2022/05/21 07:23:31;;;;;;;1999.90;999.90;;;;;;;-145.26;100.00;63821.50;4972418;28;20112;-71
2022/05/21 07:25:56;;;;;;;1999.90;999.90;;;;;;;-145.26;100.00;63821.50;4973030;28;20030;-73
2022/05/21 07:28:21;;;;;;;1999.90;999.90;;;;;;;-145.26;100.00;63821.50;4966502;28;20391;-75
2022/05/21 07:30:47;;;;;;;1999.90;999.90;;;;;;;-145.26;100.00;63821.50;4954745;28;20034;-69
2022/05/21 07:33:18;;;;;;;1999.90;999.90;;;;;;;-145.26;100.00;63821.50;4986161;28;20121;-71
2022/05/21 07:35:44;;;;;;;1999.90;999.90;;;;;;;-145.26;100.00;63821.50;4991122;28;20030;-68
2022/05/21 07:38:12;;;;;;;1999.90;999.90;;;;;;;-145.26;100.00;63821.50;4972344;28;20057;-66
2022/05/21 07:40:39;;;;;;;1999.90;999.90;;;;;;;-145.26;100.00;63821.50;4973914;28;20033;-70
2022/05/21 07:43:30;;;;;;;1999.90;999.90;;;;;;;-145.26;100.00;63821.50;4970560;28;20538;-70
2022/05/21 07:46:00;;;;;;;1999.90;999.90;;;;;;;-145.26;100.00;63821.50;4986437;28;20506;-71
2022/05/21 07:48:25;;;;;;;1999.90;999.90;;;;;;;-145.26;100.00;63821.50;4990789;28;20270;-70
2022/05/21 07:50:57;;;;;;;1999.90;999.90;;;;;;;-145.26;100.00;63821.50;4973310;28;20022;-69
2022/05/21 07:53:24;;;;;;;;;;;;;;;-145.26;100.00;63821.50;4962830;28;20045;-67
2022/05/21 07:55:51;;;;;;;1999.90;999.90;;;;;;;-145.26;100.00;63821.50;4989779;28;19925;-69
2022/05/21 07:58:18;;;;;;;1999.90;999.90;;;;;;;-145.26;100.00;63821.50;4972650;28;20062;-69
2022/05/21 08:00:44;;;;;;;1999.90;999.90;;;;;;;-145.26;100.00;63821.50;4989025;28;20391;-67
2022/05/21 08:03:10;;;;;;;1999.90;999.90;;;;;;;-145.26;100.00;63821.50;4986490;28;20462;-69
2022/05/21 08:05:37;;;;;;;1999.90;999.90;;;;;;;-145.26;100.00;63821.50;4969271;28;20109;-69
2022/05/21 08:08:04;;;;;;;1999.90;999.90;;;;;;;-145.26;100.00;63821.50;4989612;28;20030;-68
2022/05/21 08:10:30;;;;;;;1999.90;999.90;;;;;;;-145.26;100.00;63821.50;4989684;28;20081;-68
2022/05/21 08:12:56;;;;;;;1999.90;999.90;;;;;;;-145.26;100.00;63821.50;4973327;28;20030;-69
2022/05/21 08:15:22;;;;;;;1999.90;999.90;;;;;;;-145.26;100.00;63821.50;4987593;28;20105;-68
2022/05/21 08:17:48;;;;;;;1999.90;999.90;;;;;;;-145.26;100.00;63821.50;4990712;28;20077;-71
2022/05/21 08:20:14;;;;;;;1999.90;999.90;;;;;;;-145.26;100.00;63821.50;4987264;28;20046;-68
2022/05/21 08:28:13;;;;;;;1999.90;999.90;;;;;;;-145.26;100.00;63821.50;4989508;28;20045;-67
2022/05/21 08:30:40;;;;;;;1999.90;999.90;;;;;;;-145.26;100.00;63821.50;4964840;28;20514;-69
2022/05/21 08:33:07;;;;;;;1999.90;999.90;;;;;;;-145.26;100.00;63821.50;4972283;28;20062;-71
2022/05/21 08:35:33;;;;;;;1999.90;999.90;;;;;;;-145.26;100.00;63821.50;4972282;28;20545;-69
2022/05/21 08:37:59;;;;;;;1999.90;999.90;;;;;;;-145.26;100.00;63821.50;4971438;28;20038;-68
2022/05/21 08:40:50;;;;;;;1999.90;999.90;;;;;;;-145.26;100.00;63821.50;4972940;28;20137;-68
2022/05/21 08:43:23;;;;;;;1999.90;999.90;;;;;;;-145.26;100.00;63821.50;4953685;28;20491;-68
2022/05/21 08:46:09;;;;;;;1999.90;999.90;;;;;;;-145.26;100.00;63821.50;4971965;28;20030;-67
2022/05/21 08:48:37;;;;;;;1999.90;999.90;;;;;;;-145.26;100.00;63821.50;4989340;28;20034;-67
2022/05/21 08:51:12;;;;;;;1999.90;999.90;;;;;;;-145.26;100.00;63821.50;4988541;28;20030;-66
2022/05/21 08:53:46;;;;;;;1999.90;999.90;;;;;;;-145.26;100.00;63821.50;4971645;28;20076;-66
2022/05/21 08:56:12;;;;;;;1999.90;999.90;;;;;;;-145.26;100.00;63821.50;4969957;28;20492;-65
2022/05/21 08:58:46;;;;;;;1999.90;999.90;;;;;;;-145.26;100.00;63821.50;4972827;28;20057;-66
2022/05/21 09:01:16;;;;;;;1999.90;999.90;;;;;;;-145.26;100.00;63821.50;4989172;28;20475;-66
2022/05/21 09:03:42;;;;;;;1999.90;999.90;;;;;;;-145.26;100.00;63821.50;4972704;28;20018;-67
2022/05/21 09:06:19;;;;;;;1999.90;999.90;;;;;;;-145.26;100.00;63821.50;4988081;28;20553;-65
2022/05/21 09:08:59;;;;;;;1999.90;999.90;;;;;;;-145.26;100.00;63821.50;4988644;28;20113;-67
2022/05/21 09:11:34;;;;;;;1999.90;999.90;;;;;;;-145.26;100.00;63821.50;4969990;28;20034;-66
2022/05/21 09:14:13;;;;;;;1999.90;999.90;;;;;;;-145.26;100.00;63821.50;4971110;28;20034;-65
2022/05/21 09:16:56;;;;;;;1999.90;999.90;;;;;;;-145.26;100.00;63821.50;4988762;28;20088;-69
2022/05/21 09:19:34;;;;;;;1999.90;999.90;;;;;;;-145.26;100.00;63821.50;4989901;28;20541;-66
2022/05/21 09:22:02;;;;;;;1999.90;999.90;;;;;;;-145.26;100.00;63821.50;4988388;28;20054;-67
2022/05/21 09:24:56;;;;;;;1999.90;999.90;;;;;;;-145.26;100.00;63821.50;4988591;28;20522;-66
2022/05/21 09:27:32;;;;;;;1999.90;999.90;;;;;;;-145.26;100.00;63821.50;4969025;28;20097;-67
2022/05/21 09:30:13;;;;;;;1999.90;999.90;;;;;;;-145.26;100.00;63821.50;4969239;28;20475;-71
2022/05/21 09:32:42;;;;;;;1999.90;999.90;;;;;;;-145.26;100.00;63821.50;4970689;28;20118;-69
2022/05/21 09:35:11;;;;;;;1999.90;999.90;;;;;;;-145.26;100.00;63821.50;4970300;28;20495;-68
2022/05/21 09:37:38;;;;;;;1999.90;999.90;;;;;;;-145.26;100.00;63821.50;4970932;28;20129;-68
2022/05/21 09:40:23;;;;;;;1999.90;999.90;;;;;;;-145.26;100.00;63821.50;4988039;28;20106;-69
2022/05/21 09:45:37;;;;;;;1999.90;999.90;;;;;;;-145.26;100.00;63821.50;4980071;28;20041;-68
2022/05/21 09:48:05;;;;;;;1999.90;999.90;;;;;;;-145.26;100.00;63821.50;4992887;28;20030;-67
2022/05/21 09:50:42;;;;;;;1999.90;999.90;;;;;;;-145.26;100.00;63821.50;4993727;28;20063;-68
2022/05/21 09:53:39;;;;;;;1999.90;999.90;;;;;;;-145.26;100.00;63821.50;4974502;28;20431;-68
2022/05/21 09:56:18;;;;;;;1999.90;999.90;;;;;;;-145.26;100.00;63821.50;4973360;28;20039;-70
2022/05/21 09:59:07;;;;;;;1999.90;999.90;;;;;;;-145.26;100.00;63821.50;4968963;28;20030;-69
2022/05/21 10:01:54;;;;;;;1999.90;999.90;;;;;;;-145.26;100.00;63821.50;4952899;29;20035;-69
2022/05/21 10:04:32;;;;;;;1999.90;999.90;;;;;;;-145.26;100.00;63821.50;4954908;28;20027;-69
2022/05/21 10:07:06;;;;;;;1999.90;999.90;;;;;;;-145.26;100.00;63821.50;4945044;28;20023;-68
2022/05/21 10:12:39;;;;;;;1999.90;999.90;;;;;;;-145.26;100.00;63821.50;4974122;28;20130;-70
2022/05/21 10:15:13;;;;;;;1999.90;999.90;;;;;;;-145.26;100.00;63821.50;4972351;28;20121;-68
2022/05/21 10:17:47;;;;;;;1999.90;999.90;;;;;;;-145.26;100.00;63821.50;4953668;28;20027;-70
2022/05/21 10:20:26;;;;;;;1999.90;999.90;;;;;;;-145.26;100.00;63821.50;4960389;28;20456;-68
2022/05/21 10:23:11;;;;;;;1999.90;999.90;;;;;;;-145.26;100.00;63821.50;4955719;28;20622;-70
2022/05/21 10:25:48;;;;;;;1999.90;999.90;;;;;;;-145.26;100.00;63821.50;4969380;28;20113;-67
2022/05/21 10:28:42;;;;;;;1999.90;999.90;;;;;;;-145.26;100.00;63821.50;4954916;28;20035;-66
2022/05/21 10:31:24;;;;;;;1999.90;999.90;;;;;;;-145.26;100.00;63821.50;4962245;28;20035;-68
2022/05/21 10:34:16;;;;;;;1999.90;999.90;;;;;;;-145.26;100.00;63821.50;4972024;28;20029;-67
2022/05/21 10:37:00;;;;;;;1999.90;999.90;;;;;;;-145.26;100.00;63821.50;4971215;28;20031;-67
2022/05/21 10:40:07;;;;;;;1999.90;999.90;;;;;;;-145.26;100.00;63821.50;4952678;28;20022;-67
2022/05/21 10:42:38;;;;;;;1999.90;999.90;;;;;;;-145.26;100.00;63821.50;4973429;28;20037;-68
2022/05/21 10:45:12;;;;;;;1999.90;999.90;;;;;;;-145.26;100.00;63821.50;4954482;28;20027;-67
2022/05/21 10:48:05;;;;;;;1999.90;999.90;;;;;;;-145.26;100.00;63821.50;4959149;28;20027;-67
2022/05/21 10:50:46;;;;;;;1999.90;999.90;;;;;;;-145.26;100.00;63821.50;4971164;28;20050;-67
2022/05/21 10:53:17;;;;;;;1999.90;999.90;;;;;;;-145.26;100.00;63821.50;4968964;28;20039;-67
2022/05/21 10:55:48;;;;;;;1999.90;999.90;;;;;;;-145.26;100.00;63821.50;4953839;28;20027;-66
2022/05/21 10:58:22;;;;;;;1999.90;999.90;;;;;;;-145.26;100.00;63821.50;4971651;28;20022;-66
2022/05/21 11:01:13;;;;;;;1999.90;999.90;;;;;;;-145.26;100.00;63821.50;4987514;28;20399;-66
2022/05/21 11:04:05;;;;;;;1999.90;999.90;;;;;;;-145.26;100.00;63821.50;4991563;28;20049;-69
2022/05/21 11:06:55;;;;;;;1999.90;999.90;;;;;;;-145.26;100.00;63821.50;4972559;28;20177;-69
2022/05/21 11:09:28;;;;;;;1999.90;999.90;;;;;;;-145.26;100.00;63821.50;4995931;28;20041;-68